Time,TemperatureF,DewpointF,PressureIn,WindDirection,WindDirectionDegrees,WindSpeedMPH,WindSpeedGustMPH,Humidity,HourlyPrecipIn,Conditions,Clouds,dailyrainin,SolarRadiationWatts/m^2,SoftwareType,DateUTC
2013-01-02 00:03:00,10.3,0.9,30.12,SSE,148,2.0,5.0,65,0.00,,,0.00,0,WeatherHawk,2013-01-02 06:03:00,
2013-01-02 00:08:00,10.4,1.0,30.12,SSE,148,1.0,5.0,65,0.00,,,0.00,0,WeatherHawk,2013-01-02 06:08:00,
2013-01-02 00:13:00,10.5,1.1,30.12,SSE,148,0.0,4.0,65,0.00,,,0.00,0,WeatherHawk,2013-01-02 06:13:00,
2013-01-02 00:18:00,10.5,1.5,30.12,SSE,148,0.0,4.0,66,0.00,,,0.00,0,WeatherHawk,2013-01-02 06:18:00,
2013-01-02 00:23:00,10.7,1.6,30.12,SSE,148,0.0,3.0,66,0.00,,,0.00,0,WeatherHawk,2013-01-02 06:23:00,
2013-01-02 00:28:00,10.7,2.0,30.12,SSE,148,0.0,3.0,67,0.00,,,0.00,0,WeatherHawk,2013-01-02 06:28:00,
2013-01-02 00:33:00,10.8,1.7,30.11,SSE,148,0.0,3.0,66,0.00,,,0.00,0,WeatherHawk,2013-01-02 06:33:00,
2013-01-02 00:38:00,10.9,1.8,30.11,SSE,148,1.0,3.0,66,0.00,,,0.00,0,WeatherHawk,2013-01-02 06:38:00,
2013-01-02 00:43:00,11.0,2.2,30.11,SSE,148,0.0,4.0,67,0.00,,,0.00,0,WeatherHawk,2013-01-02 06:43:00,
2013-01-02 00:48:00,11.0,2.2,30.11,SSE,148,0.0,4.0,67,0.00,,,0.00,0,WeatherHawk,2013-01-02 06:48:00,
2013-01-02 00:53:00,11.1,2.3,30.11,SSE,148,0.0,2.0,67,0.00,,,0.00,0,WeatherHawk,2013-01-02 06:53:00,
2013-01-02 00:59:00,11.1,2.3,30.11,SSE,148,0.0,2.0,67,0.00,,,0.00,0,WeatherHawk,2013-01-02 06:59:00,
2013-01-02 01:04:00,11.2,2.4,30.11,SSE,148,0.0,1.0,67,0.00,,,0.00,0,WeatherHawk,2013-01-02 07:04:00,
2013-01-02 01:10:00,11.2,2.4,30.11,SSE,148,0.0,1.0,67,0.00,,,0.00,0,WeatherHawk,2013-01-02 07:10:00,
2013-01-02 01:15:00,11.3,2.5,30.11,SSE,148,0.0,1.0,67,0.00,,,0.00,0,WeatherHawk,2013-01-02 07:15:00,
2013-01-02 01:20:00,11.3,2.9,30.11,SSE,148,0.0,1.0,68,0.00,,,0.00,0,WeatherHawk,2013-01-02 07:20:00,
2013-01-02 01:25:00,11.4,2.6,30.11,SSE,148,0.0,1.0,67,0.00,,,0.00,0,WeatherHawk,2013-01-02 07:25:00,
2013-01-02 01:30:00,11.5,2.7,30.11,SSE,148,0.0,1.0,67,0.00,,,0.00,0,WeatherHawk,2013-01-02 07:30:00,
2013-01-02 01:35:00,11.6,3.1,30.11,SSE,148,0.0,2.0,68,0.00,,,0.00,0,WeatherHawk,2013-01-02 07:35:00,
2013-01-02 01:40:00,11.6,3.1,30.11,SSE,148,0.0,2.0,68,0.00,,,0.00,0,WeatherHawk,2013-01-02 07:40:00,
2013-01-02 01:45:00,11.6,3.1,30.12,SSE,148,0.0,1.0,68,0.00,,,0.00,0,WeatherHawk,2013-01-02 07:45:00,
2013-01-02 01:50:00,11.7,3.5,30.12,SSE,148,0.0,1.0,69,0.00,,,0.00,0,WeatherHawk,2013-01-02 07:50:00,
2013-01-02 01:55:00,11.7,3.3,30.12,SSE,148,0.0,2.0,68,0.00,,,0.00,0,WeatherHawk,2013-01-02 07:55:00,
2013-01-02 02:00:00,11.8,3.6,30.12,SSE,148,0.0,-999.0,69,0.00,,,0.00,0,WeatherHawk,2013-01-02 08:00:00,
2013-01-02 02:05:00,11.9,3.7,30.13,SSE,148,0.0,2.0,69,0.00,,,0.00,0,WeatherHawk,2013-01-02 08:05:00,
2013-01-02 02:10:00,11.9,3.4,30.13,SSE,148,0.0,2.0,68,0.00,,,0.00,0,WeatherHawk,2013-01-02 08:10:00,
2013-01-02 02:15:00,11.9,3.4,30.13,SSE,148,0.0,1.0,68,0.00,,,0.00,0,WeatherHawk,2013-01-02 08:15:00,
2013-01-02 02:20:00,12.0,3.5,30.13,SSE,148,0.0,1.0,68,0.00,,,0.00,0,WeatherHawk,2013-01-02 08:20:00,
2013-01-02 02:25:00,12.1,3.9,30.13,SSE,148,0.0,1.0,69,0.00,,,0.00,0,WeatherHawk,2013-01-02 08:25:00,
2013-01-02 02:30:00,12.2,4.0,30.13,SSE,148,0.0,1.0,69,0.00,,,0.00,1,WeatherHawk,2013-01-02 08:30:00,
2013-01-02 02:35:00,12.4,4.2,30.13,SSE,148,0.0,0.0,69,0.00,,,0.00,0,WeatherHawk,2013-01-02 08:35:00,
2013-01-02 02:40:00,12.4,4.2,30.13,SSE,148,0.0,0.0,69,0.00,,,0.00,0,WeatherHawk,2013-01-02 08:40:00,
2013-01-02 02:45:00,12.5,4.3,30.13,SSE,148,1.0,-999.0,69,0.00,,,0.00,1,WeatherHawk,2013-01-02 08:45:00,
2013-01-02 02:50:00,12.5,4.6,30.13,SSE,148,0.0,0.0,70,0.00,,,0.00,0,WeatherHawk,2013-01-02 08:50:00,
2013-01-02 02:55:00,12.6,4.7,30.13,SSE,148,0.0,3.0,70,0.00,,,0.00,0,WeatherHawk,2013-01-02 08:55:00,
2013-01-02 03:00:00,12.8,5.2,30.13,SSE,148,0.0,3.0,71,0.00,,,0.00,0,WeatherHawk,2013-01-02 09:00:00,
2013-01-02 03:05:00,12.9,5.3,30.12,SSE,148,0.0,1.0,71,0.00,,,0.00,0,WeatherHawk,2013-01-02 09:05:00,
2013-01-02 03:10:00,13.0,5.7,30.13,SSE,148,0.0,1.0,72,0.00,,,0.00,0,WeatherHawk,2013-01-02 09:10:00,
2013-01-02 03:15:00,13.1,5.5,30.11,SSE,148,1.0,2.0,71,0.00,,,0.00,0,WeatherHawk,2013-01-02 09:15:00,
2013-01-02 03:20:00,13.1,5.8,30.11,SSE,148,0.0,2.0,72,0.00,,,0.00,0,WeatherHawk,2013-01-02 09:20:00,
2013-01-02 03:25:00,13.1,5.8,30.12,SSE,148,0.0,2.0,72,0.00,,,0.00,0,WeatherHawk,2013-01-02 09:25:00,
2013-01-02 03:30:00,13.3,6.2,30.11,SSE,148,1.0,2.0,73,0.00,,,0.00,0,WeatherHawk,2013-01-02 09:30:00,
2013-01-02 03:35:00,13.3,6.6,30.11,SSE,148,0.0,1.0,74,0.00,,,0.00,0,WeatherHawk,2013-01-02 09:35:00,
2013-01-02 03:40:00,13.5,6.8,30.11,SSE,148,0.0,1.0,74,0.00,,,0.00,0,WeatherHawk,2013-01-02 09:40:00,
2013-01-02 03:45:00,13.8,7.3,30.11,SSE,148,0.0,1.0,75,0.00,,,0.00,1,WeatherHawk,2013-01-02 09:45:00,
2013-01-02 03:50:00,14.0,7.8,30.11,SSE,148,0.0,1.0,76,0.00,,,0.00,0,WeatherHawk,2013-01-02 09:50:00,
2013-01-02 03:55:00,14.2,8.4,30.11,SSE,148,0.0,1.0,77,0.00,,,0.00,0,WeatherHawk,2013-01-02 09:55:00,
2013-01-02 04:00:00,14.3,8.8,30.11,SSE,148,0.0,1.0,78,0.00,,,0.00,0,WeatherHawk,2013-01-02 10:00:00,
2013-01-02 04:05:00,14.4,8.8,30.12,SSE,148,0.0,2.0,78,0.00,,,0.00,0,WeatherHawk,2013-01-02 10:05:00,
2013-01-02 04:10:00,14.6,9.3,30.11,SSE,148,0.0,2.0,79,0.00,,,0.00,0,WeatherHawk,2013-01-02 10:10:00,
2013-01-02 04:15:00,14.8,9.8,30.11,SSE,148,0.0,1.0,80,0.00,,,0.00,0,WeatherHawk,2013-01-02 10:15:00,
2013-01-02 04:20:00,15.2,10.7,30.11,SSE,148,0.0,1.0,82,0.00,,,0.00,0,WeatherHawk,2013-01-02 10:20:00,
2013-01-02 04:25:00,15.4,11.2,30.11,SSE,148,0.0,0.0,83,0.00,,,0.00,0,WeatherHawk,2013-01-02 10:25:00,
2013-01-02 04:30:00,15.5,11.6,30.10,SSE,148,0.0,-999.0,84,0.00,,,0.00,1,WeatherHawk,2013-01-02 10:30:00,
2013-01-02 04:35:00,15.5,11.6,30.11,SSE,148,0.0,0.0,84,0.00,,,0.00,1,WeatherHawk,2013-01-02 10:35:00,
2013-01-02 04:40:00,15.5,11.6,30.10,SSE,148,0.0,0.0,84,0.00,,,0.00,0,WeatherHawk,2013-01-02 10:40:00,
2013-01-02 04:45:00,15.7,11.7,30.10,SSE,148,0.0,1.0,84,0.00,,,0.00,0,WeatherHawk,2013-01-02 10:45:00,
2013-01-02 04:50:00,15.6,11.7,30.10,SSE,148,0.0,1.0,84,0.00,,,0.00,0,WeatherHawk,2013-01-02 10:50:00,
2013-01-02 04:55:00,15.7,11.7,30.09,SSE,148,0.0,0.0,84,0.00,,,0.00,0,WeatherHawk,2013-01-02 10:55:00,
2013-01-02 05:00:00,15.8,11.8,30.09,SSE,148,0.0,0.0,84,0.00,,,0.00,0,WeatherHawk,2013-01-02 11:00:00,
2013-01-02 05:05:00,15.8,11.8,30.10,SSE,148,0.0,-999.0,84,0.00,,,0.00,0,WeatherHawk,2013-01-02 11:05:00,
2013-01-02 05:10:00,15.8,11.8,30.10,SSE,148,0.0,0.0,84,0.00,,,0.00,1,WeatherHawk,2013-01-02 11:10:00,
2013-01-02 05:15:00,15.9,11.9,30.09,SSE,148,0.0,-999.0,84,0.00,,,0.00,0,WeatherHawk,2013-01-02 11:15:00,
2013-01-02 05:20:00,15.8,11.8,30.10,SSE,148,0.0,-999.0,84,0.00,,,0.00,0,WeatherHawk,2013-01-02 11:20:00,
2013-01-02 05:25:00,15.9,11.9,30.10,SSE,148,0.0,0.0,84,0.00,,,0.00,0,WeatherHawk,2013-01-02 11:25:00,
2013-01-02 05:30:00,15.8,11.8,30.10,SSE,148,0.0,0.0,84,0.00,,,0.00,0,WeatherHawk,2013-01-02 11:30:00,
2013-01-02 05:35:00,15.8,11.9,30.10,SSE,148,0.0,0.0,84,0.00,,,0.00,1,WeatherHawk,2013-01-02 11:35:00,
2013-01-02 05:40:00,15.6,11.4,30.10,SSE,148,0.0,0.0,83,0.00,,,0.00,0,WeatherHawk,2013-01-02 11:40:00,
2013-01-02 05:45:00,15.5,11.3,30.10,SSE,148,0.0,0.0,83,0.00,,,0.00,0,WeatherHawk,2013-01-02 11:45:00,
2013-01-02 05:50:00,15.4,10.9,30.09,SSE,148,0.0,0.0,82,0.00,,,0.00,0,WeatherHawk,2013-01-02 11:50:00,
2013-01-02 05:55:00,15.3,10.8,30.10,SSE,148,0.0,0.0,82,0.00,,,0.00,0,WeatherHawk,2013-01-02 11:55:00,
2013-01-02 06:00:00,15.3,10.8,30.10,SSE,148,0.0,0.0,82,0.00,,,0.00,0,WeatherHawk,2013-01-02 12:00:00,
2013-01-02 06:05:00,15.3,10.8,30.10,SSE,148,0.0,0.0,82,0.00,,,0.00,1,WeatherHawk,2013-01-02 12:05:00,
2013-01-02 06:10:00,15.3,10.8,30.10,SSE,148,0.0,0.0,82,0.00,,,0.00,0,WeatherHawk,2013-01-02 12:10:00,
2013-01-02 06:15:00,15.2,10.7,30.09,SSE,148,0.0,0.0,82,0.00,,,0.00,0,WeatherHawk,2013-01-02 12:15:00,
2013-01-02 06:20:00,15.3,10.8,30.10,SSE,148,0.0,0.0,82,0.00,,,0.00,0,WeatherHawk,2013-01-02 12:20:00,
2013-01-02 06:25:00,15.4,10.9,30.10,SSE,148,0.0,2.0,82,0.00,,,0.00,0,WeatherHawk,2013-01-02 12:25:00,
2013-01-02 06:30:00,15.3,10.8,30.10,SSE,148,0.0,2.0,82,0.00,,,0.00,0,WeatherHawk,2013-01-02 12:30:00,
2013-01-02 06:35:00,15.3,10.8,30.10,SSE,148,0.0,-999.0,82,0.00,,,0.00,0,WeatherHawk,2013-01-02 12:35:00,
2013-01-02 06:40:00,15.3,10.5,30.10,SSE,148,0.0,2.0,81,0.00,,,0.00,0,WeatherHawk,2013-01-02 12:40:00,
2013-01-02 06:45:00,15.2,10.4,30.10,SSE,148,0.0,2.0,81,0.00,,,0.00,0,WeatherHawk,2013-01-02 12:45:00,
2013-01-02 06:50:00,15.1,10.3,30.11,SSE,148,0.0,2.0,81,0.00,,,0.00,0,WeatherHawk,2013-01-02 12:50:00,
2013-01-02 06:55:00,15.0,10.3,30.11,SSE,148,0.0,2.0,81,0.00,,,0.00,0,WeatherHawk,2013-01-02 12:55:00,
2013-01-02 07:00:00,14.6,9.9,30.11,SSE,148,0.0,2.0,81,0.00,,,0.00,0,WeatherHawk,2013-01-02 13:00:00,
2013-01-02 07:05:00,14.7,9.9,30.11,SSE,148,0.0,1.0,81,0.00,,,0.00,0,WeatherHawk,2013-01-02 13:05:00,
2013-01-02 07:10:00,14.4,9.6,30.11,SSE,148,0.0,1.0,81,0.00,,,0.00,0,WeatherHawk,2013-01-02 13:10:00,
2013-01-02 07:15:00,14.4,9.7,30.10,SSE,148,4.0,4.0,81,0.00,,,0.00,0,WeatherHawk,2013-01-02 13:15:00,
2013-01-02 07:20:00,14.0,9.0,30.11,SSE,148,0.0,4.0,80,0.00,,,0.00,2,WeatherHawk,2013-01-02 13:20:00,
2013-01-02 07:25:00,13.9,9.1,30.11,SSE,148,0.0,3.0,81,0.00,,,0.00,2,WeatherHawk,2013-01-02 13:25:00,
2013-01-02 07:30:00,13.5,8.8,30.11,SSE,148,2.0,3.0,81,0.00,,,0.00,4,WeatherHawk,2013-01-02 13:30:00,
2013-01-02 07:35:00,13.0,8.3,30.11,SSE,148,3.0,4.0,81,0.00,,,0.00,6,WeatherHawk,2013-01-02 13:35:00,
2013-01-02 07:40:00,12.7,7.8,30.11,SSE,148,0.0,4.0,80,0.00,,,0.00,12,WeatherHawk,2013-01-02 13:40:00,
2013-01-02 07:45:00,13.0,8.0,30.11,SSE,148,0.0,4.0,80,0.00,,,0.00,19,WeatherHawk,2013-01-02 13:45:00,
2013-01-02 07:50:00,12.9,7.7,30.11,SSE,148,0.0,4.0,79,0.00,,,0.00,18,WeatherHawk,2013-01-02 13:50:00,
2013-01-02 07:55:00,13.0,7.5,30.11,SSE,148,3.0,4.0,78,0.00,,,0.00,23,WeatherHawk,2013-01-02 13:55:00,
2013-01-02 08:00:00,12.3,6.2,30.11,SSE,148,0.0,4.0,76,0.00,,,0.00,28,WeatherHawk,2013-01-02 14:00:00,
2013-01-02 08:05:00,12.7,6.8,30.11,SSE,148,0.0,3.0,77,0.00,,,0.00,37,WeatherHawk,2013-01-02 14:05:00,
2013-01-02 08:10:00,12.3,5.9,30.10,SSE,148,0.0,3.0,75,0.00,,,0.00,29,WeatherHawk,2013-01-02 14:10:00,
2013-01-02 08:15:00,12.1,5.2,30.11,SSE,148,1.0,5.0,73,0.00,,,0.00,32,WeatherHawk,2013-01-02 14:15:00,
2013-01-02 08:20:00,12.4,5.1,30.10,SSE,148,0.0,5.0,72,0.00,,,0.00,37,WeatherHawk,2013-01-02 14:20:00,
2013-01-02 08:25:00,12.8,4.9,30.11,SSE,148,0.0,4.0,70,0.00,,,0.00,54,WeatherHawk,2013-01-02 14:25:00,
2013-01-02 08:30:00,12.8,4.3,30.11,SSE,148,0.0,4.0,68,0.00,,,0.00,53,WeatherHawk,2013-01-02 14:30:00,
2013-01-02 08:35:00,13.1,4.2,30.10,SSE,148,0.0,4.0,67,0.00,,,0.00,98,WeatherHawk,2013-01-02 14:35:00,
2013-01-02 08:40:00,14.2,4.3,30.11,SSE,148,2.0,4.0,64,0.00,,,0.00,115,WeatherHawk,2013-01-02 14:40:00,
2013-01-02 08:45:00,14.3,3.7,30.12,SSE,148,3.0,-999.0,62,0.00,,,0.00,130,WeatherHawk,2013-01-02 14:45:00,
2013-01-02 08:50:00,13.4,3.5,30.12,SSE,148,1.0,2.0,64,0.00,,,0.00,125,WeatherHawk,2013-01-02 14:50:00,
2013-01-02 08:55:00,13.7,3.8,30.12,SSE,148,3.0,4.0,64,0.00,,,0.00,116,WeatherHawk,2013-01-02 14:55:00,
2013-01-02 09:00:00,14.5,4.3,30.12,SSE,148,1.0,4.0,63,0.00,,,0.00,120,WeatherHawk,2013-01-02 15:00:00,
2013-01-02 09:10:00,16.4,3.9,30.12,SSE,148,1.0,5.0,57,0.00,,,0.00,174,WeatherHawk,2013-01-02 15:10:00,
2013-01-02 09:15:00,17.0,3.7,30.12,SSE,148,0.0,6.0,55,0.00,,,0.00,190,WeatherHawk,2013-01-02 15:15:00,
2013-01-02 09:20:00,17.0,2.9,30.12,SSE,148,0.0,6.0,53,0.00,,,0.00,202,WeatherHawk,2013-01-02 15:20:00,
2013-01-02 09:25:00,16.9,1.5,30.12,SSE,148,0.0,4.0,50,0.00,,,0.00,212,WeatherHawk,2013-01-02 15:25:00,
2013-01-02 09:30:00,17.0,0.3,30.11,SSE,148,5.0,5.0,47,0.00,,,0.00,218,WeatherHawk,2013-01-02 15:30:00,
2013-01-02 09:35:00,17.4,1.5,30.12,SSE,149,0.0,4.0,49,0.00,,,0.00,227,WeatherHawk,2013-01-02 15:35:00,
2013-01-02 09:40:00,17.6,1.3,30.11,SSE,149,0.0,4.0,48,0.00,,,0.00,240,WeatherHawk,2013-01-02 15:40:00,
2013-01-02 09:45:00,17.1,0.4,30.11,SSE,149,0.0,5.0,47,0.00,,,0.00,249,WeatherHawk,2013-01-02 15:45:00,
2013-01-02 09:50:00,16.7,0.5,30.11,SSE,150,2.0,5.0,48,0.00,,,0.00,252,WeatherHawk,2013-01-02 15:50:00,
2013-01-02 09:55:00,16.6,0.4,30.11,SSE,150,1.0,5.0,48,0.00,,,0.00,268,WeatherHawk,2013-01-02 15:55:00,
2013-01-02 10:00:00,16.6,-0.6,30.11,SSE,152,1.0,5.0,46,0.00,,,0.00,274,WeatherHawk,2013-01-02 16:00:00,
2013-01-02 10:05:00,17.3,0.1,30.11,SSE,153,0.0,6.0,46,0.00,,,0.00,285,WeatherHawk,2013-01-02 16:05:00,
2013-01-02 10:10:00,16.6,-1.9,30.11,SSE,159,5.0,6.0,43,0.00,,,0.00,294,WeatherHawk,2013-01-02 16:10:00,
2013-01-02 10:15:00,16.6,-2.4,30.11,SSE,159,5.0,5.0,42,0.00,,,0.00,299,WeatherHawk,2013-01-02 16:15:00,
2013-01-02 10:20:00,17.3,-2.3,30.11,SSE,159,3.0,5.0,41,0.00,,,0.00,308,WeatherHawk,2013-01-02 16:20:00,
2013-01-02 10:25:00,17.3,-3.4,30.11,SSE,166,6.0,6.0,39,0.00,,,0.00,314,WeatherHawk,2013-01-02 16:25:00,
2013-01-02 10:30:00,18.2,-2.6,30.10,South,171,4.0,6.0,39,0.00,,,0.00,323,WeatherHawk,2013-01-02 16:30:00,
2013-01-02 10:35:00,18.8,-1.5,30.10,SSE,164,0.0,7.0,40,0.00,,,0.00,328,WeatherHawk,2013-01-02 16:35:00,
2013-01-02 10:40:00,18.6,-1.6,30.10,SSE,162,4.0,7.0,40,0.00,,,0.00,335,WeatherHawk,2013-01-02 16:40:00,
2013-01-02 10:45:00,18.8,-1.0,30.09,SSE,157,1.0,-999.0,41,0.00,,,0.00,341,WeatherHawk,2013-01-02 16:45:00,
2013-01-02 10:50:00,19.7,-0.1,30.08,South,178,1.0,6.0,41,0.00,,,0.00,345,WeatherHawk,2013-01-02 16:50:00,
2013-01-02 10:55:00,18.3,-2.0,30.08,South,175,3.0,6.0,40,0.00,,,0.00,352,WeatherHawk,2013-01-02 16:55:00,
2013-01-02 11:00:00,18.3,-1.4,30.08,SSE,156,2.0,6.0,41,0.00,,,0.00,357,WeatherHawk,2013-01-02 17:00:00,
2013-01-02 11:05:00,18.1,-2.6,30.08,SSE,157,5.0,-999.0,39,0.00,,,0.00,362,WeatherHawk,2013-01-02 17:05:00,
2013-01-02 11:13:00,18.4,-1.8,30.06,South,169,8.0,8.0,40,0.00,,,0.00,367,WeatherHawk,2013-01-02 17:13:00,
2013-01-02 11:18:00,18.5,-1.7,30.07,South,180,8.0,8.0,40,0.00,,,0.00,369,WeatherHawk,2013-01-02 17:18:00,
2013-01-02 11:23:00,18.4,-1.3,30.07,SSE,164,5.0,10.0,41,0.00,,,0.00,375,WeatherHawk,2013-01-02 17:23:00,
2013-01-02 11:29:00,18.4,-1.3,30.07,South,177,7.0,10.0,41,0.00,,,0.00,377,WeatherHawk,2013-01-02 17:29:00,
2013-01-02 11:34:00,18.7,-1.0,30.07,SSE,159,4.0,9.0,41,0.00,,,0.00,379,WeatherHawk,2013-01-02 17:34:00,
2013-01-02 11:39:00,18.6,-1.7,30.06,SE,143,5.0,9.0,40,0.00,,,0.00,378,WeatherHawk,2013-01-02 17:39:00,
2013-01-02 11:45:00,19.3,-1.0,30.06,South,177,1.0,10.0,40,0.00,,,0.00,380,WeatherHawk,2013-01-02 17:45:00,
2013-01-02 11:50:00,19.3,-1.1,30.06,SSE,168,4.0,10.0,40,0.00,,,0.00,380,WeatherHawk,2013-01-02 17:50:00,
2013-01-02 11:55:00,19.3,-0.5,30.05,South,170,2.0,8.0,41,0.00,,,0.00,384,WeatherHawk,2013-01-02 17:55:00,
2013-01-02 12:01:00,19.8,-0.1,30.06,SSE,164,4.0,-999.0,41,0.00,,,0.00,382,WeatherHawk,2013-01-02 18:01:00,
2013-01-02 12:05:00,21.3,1.3,30.05,South,188,3.0,8.0,41,0.00,,,0.00,383,WeatherHawk,2013-01-02 18:05:00,
2013-01-02 12:10:00,20.1,0.2,30.05,South,183,4.0,8.0,41,0.00,,,0.00,383,WeatherHawk,2013-01-02 18:10:00,
2013-01-02 12:15:00,19.8,-0.5,30.05,SSE,162,5.0,6.0,40,0.00,,,0.00,381,WeatherHawk,2013-01-02 18:15:00,
2013-01-02 12:20:00,20.1,-0.8,30.05,South,177,7.0,7.0,39,0.00,,,0.00,381,WeatherHawk,2013-01-02 18:20:00,
2013-01-02 12:26:00,20.0,-0.9,30.04,SSW,192,7.0,9.0,39,0.00,,,0.00,379,WeatherHawk,2013-01-02 18:26:00,
2013-01-02 12:31:00,19.9,-1.6,30.04,South,174,8.0,9.0,38,0.00,,,0.00,378,WeatherHawk,2013-01-02 18:31:00,
2013-01-02 12:36:00,21.2,0.2,30.04,SSW,206,5.0,-999.0,39,0.00,,,0.00,374,WeatherHawk,2013-01-02 18:36:00,
2013-01-02 12:41:00,20.5,-1.6,30.03,South,183,5.0,8.0,37,0.00,,,0.00,374,WeatherHawk,2013-01-02 18:41:00,
2013-01-02 12:46:00,21.4,-2.0,30.03,SSW,200,5.0,10.0,35,0.00,,,0.00,369,WeatherHawk,2013-01-02 18:46:00,
2013-01-02 12:51:00,21.1,-0.5,30.03,SSW,193,4.0,10.0,38,0.00,,,0.00,364,WeatherHawk,2013-01-02 18:51:00,
2013-01-02 12:56:00,21.3,0.2,30.03,SSW,208,4.0,8.0,39,0.00,,,0.00,358,WeatherHawk,2013-01-02 18:56:00,
2013-01-02 13:01:00,21.3,-0.3,30.03,SSW,199,3.0,8.0,38,0.00,,,0.00,355,WeatherHawk,2013-01-02 19:01:00,
2013-01-02 13:06:00,20.4,-1.7,30.03,SSW,192,6.0,10.0,37,0.00,,,0.00,350,WeatherHawk,2013-01-02 19:06:00,
2013-01-02 13:11:00,21.4,-0.2,30.03,South,180,4.0,10.0,38,0.00,,,0.00,347,WeatherHawk,2013-01-02 19:11:00,
2013-01-02 13:16:00,21.0,-1.1,30.03,South,189,5.0,11.0,37,0.00,,,0.00,340,WeatherHawk,2013-01-02 19:16:00,
2013-01-02 13:21:00,20.3,-1.2,30.03,South,180,7.0,11.0,38,0.00,,,0.00,337,WeatherHawk,2013-01-02 19:21:00,
2013-01-02 13:26:00,20.5,-1.0,30.02,South,169,6.0,9.0,38,0.00,,,0.00,329,WeatherHawk,2013-01-02 19:26:00,
2013-01-02 13:31:00,20.9,1.0,30.02,SSW,195,5.0,9.0,41,0.00,,,0.00,326,WeatherHawk,2013-01-02 19:31:00,
2013-01-02 13:36:00,20.7,0.8,30.03,South,179,5.0,8.0,41,0.00,,,0.00,316,WeatherHawk,2013-01-02 19:36:00,
2013-01-02 13:41:00,20.7,0.8,30.02,SSE,168,6.0,8.0,41,0.00,,,0.00,312,WeatherHawk,2013-01-02 19:41:00,
2013-01-02 13:46:00,20.7,1.7,30.03,South,176,6.0,7.0,43,0.00,,,0.00,303,WeatherHawk,2013-01-02 19:46:00,
2013-01-02 13:51:00,21.1,2.7,30.02,South,186,4.0,-999.0,44,0.00,,,0.00,295,WeatherHawk,2013-01-02 19:51:00,
2013-01-02 13:56:00,20.7,2.3,30.02,South,184,5.0,9.0,44,0.00,,,0.00,283,WeatherHawk,2013-01-02 19:56:00,
2013-01-02 14:02:00,20.9,3.0,30.02,SSW,197,5.0,8.0,45,0.00,,,0.00,276,WeatherHawk,2013-01-02 20:02:00,
2013-01-02 14:07:00,20.5,2.1,30.02,South,173,7.0,8.0,44,0.00,,,0.00,267,WeatherHawk,2013-01-02 20:07:00,
2013-01-02 14:12:00,21.2,3.6,30.02,South,181,6.0,8.0,46,0.00,,,0.00,258,WeatherHawk,2013-01-02 20:12:00,
2013-01-02 14:17:00,20.6,3.1,30.01,South,174,7.0,8.0,46,0.00,,,0.00,250,WeatherHawk,2013-01-02 20:17:00,
2013-01-02 14:23:00,21.1,4.1,30.02,South,183,4.0,9.0,47,0.00,,,0.00,248,WeatherHawk,2013-01-02 20:23:00,
2013-01-02 14:28:00,20.7,3.2,30.02,South,172,7.0,9.0,46,0.00,,,0.00,181,WeatherHawk,2013-01-02 20:28:00,
2013-01-02 14:33:00,21.1,4.1,30.02,South,171,6.0,7.0,47,0.00,,,0.00,247,WeatherHawk,2013-01-02 20:33:00,
2013-01-02 14:38:00,21.5,4.4,30.02,South,169,7.0,7.0,47,0.00,,,0.00,208,WeatherHawk,2013-01-02 20:38:00,
2013-01-02 14:43:00,21.5,5.4,30.02,South,177,6.0,8.0,49,0.00,,,0.00,157,WeatherHawk,2013-01-02 20:43:00,
2013-01-02 14:48:00,21.4,5.7,30.02,SSE,161,9.0,9.0,50,0.00,,,0.00,125,WeatherHawk,2013-01-02 20:48:00,
2013-01-02 14:53:00,21.6,6.3,30.02,South,180,7.0,8.0,51,0.00,,,0.00,112,WeatherHawk,2013-01-02 20:53:00,
2013-01-02 14:58:00,21.5,6.6,30.02,South,188,0.0,8.0,52,0.00,,,0.00,104,WeatherHawk,2013-01-02 20:58:00,
2013-01-02 15:04:00,21.6,7.1,30.02,SSW,207,4.0,9.0,53,0.00,,,0.00,103,WeatherHawk,2013-01-02 21:04:00,
2013-01-02 15:09:00,21.4,6.9,30.02,SSE,168,4.0,9.0,53,0.00,,,0.00,84,WeatherHawk,2013-01-02 21:09:00,
2013-01-02 15:14:00,21.4,7.4,30.02,SE,136,4.0,9.0,54,0.00,,,0.00,84,WeatherHawk,2013-01-02 21:14:00,
2013-01-02 15:19:00,21.5,7.5,30.03,SSE,159,4.0,9.0,54,0.00,,,0.00,82,WeatherHawk,2013-01-02 21:19:00,
2013-01-02 15:25:00,21.6,7.2,30.02,SSE,157,4.0,8.0,53,0.00,,,0.00,71,WeatherHawk,2013-01-02 21:25:00,
2013-01-02 15:30:00,21.8,8.1,30.02,SSW,199,5.0,8.0,55,0.00,,,0.00,62,WeatherHawk,2013-01-02 21:30:00,
2013-01-02 15:35:00,21.8,8.1,30.03,South,176,6.0,7.0,55,0.00,,,0.00,60,WeatherHawk,2013-01-02 21:35:00,
2013-01-02 15:40:00,21.8,8.9,30.03,SSE,168,4.0,7.0,57,0.00,,,0.00,65,WeatherHawk,2013-01-02 21:40:00,
2013-01-02 15:45:00,22.1,8.4,30.03,South,180,7.0,8.0,55,0.00,,,0.00,115,WeatherHawk,2013-01-02 21:45:00,
2013-01-02 15:50:00,22.6,9.3,30.02,South,187,3.0,8.0,56,0.00,,,0.00,102,WeatherHawk,2013-01-02 21:50:00,
2013-01-02 15:56:00,22.3,9.0,30.02,SSW,195,2.0,8.0,56,0.00,,,0.00,76,WeatherHawk,2013-01-02 21:56:00,
2013-01-02 16:01:00,21.8,8.6,30.02,SSW,197,4.0,-999.0,56,0.00,,,0.00,42,WeatherHawk,2013-01-02 22:01:00,
2013-01-02 16:06:00,20.8,7.6,30.03,SW,221,4.0,8.0,56,0.00,,,0.00,32,WeatherHawk,2013-01-02 22:06:00,
2013-01-02 16:11:00,20.3,7.9,30.03,South,184,4.0,8.0,58,0.00,,,0.00,20,WeatherHawk,2013-01-02 22:11:00,
2013-01-02 16:16:00,20.1,8.4,30.03,South,181,4.0,7.0,60,0.00,,,0.00,15,WeatherHawk,2013-01-02 22:16:00,
2013-01-02 16:21:00,19.8,8.5,30.03,South,187,2.0,7.0,61,0.00,,,0.00,11,WeatherHawk,2013-01-02 22:21:00,
2013-01-02 16:26:00,19.5,8.9,30.03,South,187,4.0,9.0,63,0.00,,,0.00,8,WeatherHawk,2013-01-02 22:26:00,
2013-01-02 16:31:00,19.2,9.0,30.03,SSW,194,2.0,9.0,64,0.00,,,0.00,5,WeatherHawk,2013-01-02 22:31:00,
2013-01-02 16:36:00,19.8,10.3,30.03,South,186,4.0,6.0,66,0.00,,,0.00,3,WeatherHawk,2013-01-02 22:36:00,
2013-01-02 16:41:00,18.9,10.1,30.03,South,181,1.0,6.0,68,0.00,,,0.00,2,WeatherHawk,2013-01-02 22:41:00,
2013-01-02 16:46:00,17.0,8.3,30.04,SSW,200,0.0,5.0,68,0.00,,,0.00,2,WeatherHawk,2013-01-02 22:46:00,
2013-01-02 16:51:00,18.8,10.0,30.04,SSW,205,1.0,5.0,68,0.00,,,0.00,0,WeatherHawk,2013-01-02 22:51:00,
2013-01-02 16:56:00,19.4,11.3,30.04,SSW,193,2.0,5.0,70,0.00,,,0.00,1,WeatherHawk,2013-01-02 22:56:00,
2013-01-02 17:01:00,19.0,10.9,30.03,SSE,166,3.0,5.0,70,0.00,,,0.00,1,WeatherHawk,2013-01-02 23:01:00,
2013-01-02 17:06:00,17.7,9.9,30.04,South,190,0.0,-999.0,71,0.00,,,0.00,0,WeatherHawk,2013-01-02 23:06:00,
2013-01-02 17:11:00,18.0,10.8,30.04,South,187,2.0,5.0,73,0.00,,,0.00,0,WeatherHawk,2013-01-02 23:11:00,
2013-01-02 17:16:00,17.5,10.3,30.04,SSW,199,0.0,5.0,73,0.00,,,0.00,1,WeatherHawk,2013-01-02 23:16:00,
2013-01-02 17:21:00,17.9,11.3,30.05,SSW,197,0.0,5.0,75,0.00,,,0.00,0,WeatherHawk,2013-01-02 23:21:00,
2013-01-02 17:26:00,18.1,12.1,30.04,South,190,0.0,5.0,77,0.00,,,0.00,0,WeatherHawk,2013-01-02 23:26:00,
2013-01-02 17:31:00,18.9,12.9,30.04,SSW,199,0.0,-999.0,77,0.00,,,0.00,0,WeatherHawk,2013-01-02 23:31:00,
2013-01-02 17:36:00,19.4,13.1,30.05,SSW,204,2.0,3.0,76,0.00,,,0.00,0,WeatherHawk,2013-01-02 23:36:00,
2013-01-02 17:41:00,19.5,12.6,30.05,SW,214,4.0,4.0,74,0.00,,,0.00,0,WeatherHawk,2013-01-02 23:41:00,
2013-01-02 17:46:00,19.4,11.5,30.04,SSW,208,0.0,4.0,71,0.00,,,0.00,0,WeatherHawk,2013-01-02 23:46:00,
2013-01-02 17:51:00,19.5,11.6,30.04,SSW,200,3.0,4.0,71,0.00,,,0.00,0,WeatherHawk,2013-01-02 23:51:00,
2013-01-02 17:56:00,19.7,11.3,30.04,South,181,5.0,6.0,69,0.00,,,0.00,1,WeatherHawk,2013-01-02 23:56:00,
2013-01-02 18:01:00,19.6,10.8,30.04,South,185,3.0,6.0,68,0.00,,,0.00,0,WeatherHawk,2013-01-03 00:01:00,
2013-01-02 18:06:00,19.3,10.9,30.04,South,189,2.0,6.0,69,0.00,,,0.00,0,WeatherHawk,2013-01-03 00:06:00,
2013-01-02 18:11:00,19.6,11.1,30.04,South,186,4.0,-999.0,69,0.00,,,0.00,0,WeatherHawk,2013-01-03 00:11:00,
2013-01-02 18:16:00,19.6,11.1,30.04,South,180,5.0,7.0,69,0.00,,,0.00,0,WeatherHawk,2013-01-03 00:16:00,
2013-01-02 18:21:00,19.5,11.4,30.04,South,175,4.0,7.0,70,0.00,,,0.00,0,WeatherHawk,2013-01-03 00:21:00,
2013-01-02 18:26:00,19.7,11.5,30.04,South,183,5.0,7.0,70,0.00,,,0.00,0,WeatherHawk,2013-01-03 00:26:00,
2013-01-02 18:31:00,19.6,11.4,30.04,SSW,206,6.0,-999.0,70,0.00,,,0.00,1,WeatherHawk,2013-01-03 00:31:00,
2013-01-02 18:36:00,19.5,11.4,30.04,SSW,211,3.0,7.0,70,0.00,,,0.00,0,WeatherHawk,2013-01-03 00:36:00,
2013-01-02 18:41:00,19.5,11.4,30.04,South,177,3.0,6.0,70,0.00,,,0.00,0,WeatherHawk,2013-01-03 00:41:00,
2013-01-02 18:46:00,19.3,11.2,30.04,SSW,206,2.0,6.0,70,0.00,,,0.00,0,WeatherHawk,2013-01-03 00:46:00,
2013-01-02 18:51:00,19.4,11.5,30.05,SSW,195,2.0,6.0,71,0.00,,,0.00,0,WeatherHawk,2013-01-03 00:51:00,
2013-01-02 18:56:00,19.5,11.7,30.04,SSW,194,2.0,6.0,71,0.00,,,0.00,0,WeatherHawk,2013-01-03 00:56:00,
2013-01-02 19:02:00,19.3,11.5,30.04,SSW,206,2.0,0.0,71,0.00,,,0.00,0,WeatherHawk,2013-01-03 01:02:00,
2013-01-02 19:07:00,19.4,11.9,30.04,South,183,1.0,4.0,72,0.00,,,0.00,0,WeatherHawk,2013-01-03 01:07:00,
2013-01-02 19:12:00,19.6,12.1,30.04,SW,218,2.0,5.0,72,0.00,,,0.00,0,WeatherHawk,2013-01-03 01:12:00,
2013-01-02 19:17:00,19.7,12.2,30.04,SSW,193,5.0,5.0,72,0.00,,,0.00,0,WeatherHawk,2013-01-03 01:17:00,
2013-01-02 19:22:00,19.6,11.8,30.04,SW,218,2.0,6.0,71,0.00,,,0.00,0,WeatherHawk,2013-01-03 01:22:00,
2013-01-02 19:28:00,19.6,12.1,30.04,SSW,207,2.0,6.0,72,0.00,,,0.00,0,WeatherHawk,2013-01-03 01:28:00,
2013-01-02 19:33:00,19.8,12.3,30.03,SSW,194,6.0,6.0,72,0.00,,,0.00,0,WeatherHawk,2013-01-03 01:33:00,
2013-01-02 19:38:00,19.9,12.3,30.03,SSW,200,4.0,6.0,72,0.00,,,0.00,0,WeatherHawk,2013-01-03 01:38:00,
2013-01-02 19:44:00,19.8,12.3,30.04,SW,218,2.0,7.0,72,0.00,,,0.00,0,WeatherHawk,2013-01-03 01:44:00,
2013-01-02 19:49:00,19.8,12.2,30.04,SSW,206,1.0,7.0,72,0.00,,,0.00,0,WeatherHawk,2013-01-03 01:49:00,
2013-01-02 19:54:00,19.9,12.4,30.04,SW,216,2.0,7.0,72,0.00,,,0.00,0,WeatherHawk,2013-01-03 01:54:00,
2013-01-02 19:59:00,20.0,12.4,30.04,SSW,208,1.0,7.0,72,0.00,,,0.00,0,WeatherHawk,2013-01-03 01:59:00,
2013-01-02 20:04:00,20.0,12.8,30.04,SSW,204,3.0,6.0,73,0.00,,,0.00,0,WeatherHawk,2013-01-03 02:04:00,
2013-01-02 20:09:00,20.1,12.9,30.03,South,187,2.0,6.0,73,0.00,,,0.00,0,WeatherHawk,2013-01-03 02:09:00,
2013-01-02 20:15:00,20.1,12.9,30.04,SSW,194,4.0,5.0,73,0.00,,,0.00,0,WeatherHawk,2013-01-03 02:15:00,
2013-01-02 20:20:00,20.2,12.9,30.03,SSW,201,2.0,5.0,73,0.00,,,0.00,0,WeatherHawk,2013-01-03 02:20:00,
2013-01-02 20:25:00,20.3,13.1,30.03,SSW,204,5.0,6.0,73,0.00,,,0.00,0,WeatherHawk,2013-01-03 02:25:00,
2013-01-02 20:30:00,20.2,13.0,30.03,SSW,200,2.0,6.0,73,0.00,,,0.00,0,WeatherHawk,2013-01-03 02:30:00,
2013-01-02 20:35:00,20.3,13.4,30.03,SSW,210,3.0,6.0,74,0.00,,,0.00,0,WeatherHawk,2013-01-03 02:35:00,
2013-01-02 20:40:00,20.5,13.5,30.03,SSW,194,3.0,6.0,74,0.00,,,0.00,0,WeatherHawk,2013-01-03 02:40:00,
2013-01-02 20:45:00,20.5,13.2,30.03,WSW,237,2.0,5.0,73,0.00,,,0.00,1,WeatherHawk,2013-01-03 02:45:00,
2013-01-02 20:50:00,20.7,13.4,30.04,SW,231,5.0,5.0,73,0.00,,,0.00,0,WeatherHawk,2013-01-03 02:50:00,
2013-01-02 20:56:00,20.7,13.4,30.03,SW,232,3.0,6.0,73,0.00,,,0.00,0,WeatherHawk,2013-01-03 02:56:00,
2013-01-02 21:01:00,20.8,13.5,30.03,SW,223,3.0,6.0,73,0.00,,,0.00,0,WeatherHawk,2013-01-03 03:01:00,
2013-01-02 21:06:00,20.9,13.6,30.03,SW,214,4.0,8.0,73,0.00,,,0.00,0,WeatherHawk,2013-01-03 03:06:00,
2013-01-02 21:11:00,20.9,13.7,30.03,South,188,4.0,8.0,73,0.00,,,0.00,1,WeatherHawk,2013-01-03 03:11:00,
2013-01-02 21:16:00,21.0,13.7,30.03,SSW,206,4.0,7.0,73,0.00,,,0.00,0,WeatherHawk,2013-01-03 03:16:00,
2013-01-02 21:21:00,21.0,13.7,30.03,SSW,208,4.0,-999.0,73,0.00,,,0.00,0,WeatherHawk,2013-01-03 03:21:00,
2013-01-02 21:26:00,21.0,14.0,30.03,WSW,250,3.0,7.0,74,0.00,,,0.00,0,WeatherHawk,2013-01-03 03:26:00,
2013-01-02 21:31:00,21.0,14.0,30.02,SSW,212,2.0,6.0,74,0.00,,,0.00,0,WeatherHawk,2013-01-03 03:31:00,
2013-01-02 21:39:00,21.1,14.2,30.03,WSW,248,2.0,6.0,74,0.00,,,0.00,0,WeatherHawk,2013-01-03 03:39:00,
2013-01-02 21:44:00,21.1,14.1,30.03,WSW,252,3.0,5.0,74,0.00,,,0.00,0,WeatherHawk,2013-01-03 03:44:00,
2013-01-02 21:50:00,20.9,14.0,30.02,WSW,237,3.0,5.0,74,0.00,,,0.00,0,WeatherHawk,2013-01-03 03:50:00,
2013-01-02 21:56:00,20.9,13.9,30.03,SW,225,3.0,4.0,74,0.00,,,0.00,0,WeatherHawk,2013-01-03 03:56:00,
2013-01-02 22:01:00,20.9,13.9,30.03,WSW,237,3.0,4.0,74,0.00,,,0.00,0,WeatherHawk,2013-01-03 04:01:00,
2013-01-02 22:06:00,20.9,13.6,30.03,WSW,255,7.0,7.0,73,0.00,,,0.00,1,WeatherHawk,2013-01-03 04:06:00,
2013-01-02 22:11:00,20.7,13.4,30.03,West,261,0.0,7.0,73,0.00,,,0.00,0,WeatherHawk,2013-01-03 04:11:00,
2013-01-02 22:16:00,20.5,13.6,30.03,WSW,240,1.0,6.0,74,0.00,,,0.00,0,WeatherHawk,2013-01-03 04:16:00,
2013-01-02 22:21:00,20.6,13.4,30.02,WSW,250,2.0,6.0,73,0.00,,,0.00,0,WeatherHawk,2013-01-03 04:21:00,
2013-01-02 22:26:00,20.6,13.6,30.02,SW,229,4.0,7.0,74,0.00,,,0.00,0,WeatherHawk,2013-01-03 04:26:00,
2013-01-02 22:31:00,20.5,13.6,30.02,SSW,208,1.0,7.0,74,0.00,,,0.00,0,WeatherHawk,2013-01-03 04:31:00,
2013-01-02 22:36:00,20.7,13.7,30.02,SW,219,4.0,6.0,74,0.00,,,0.00,0,WeatherHawk,2013-01-03 04:36:00,
2013-01-02 22:42:00,20.6,13.7,30.02,SW,223,3.0,5.0,74,0.00,,,0.00,1,WeatherHawk,2013-01-03 04:42:00,
2013-01-02 22:47:00,20.6,13.7,30.03,WSW,248,1.0,5.0,74,0.00,,,0.00,1,WeatherHawk,2013-01-03 04:47:00,
2013-01-02 22:52:00,20.7,13.8,30.03,West,263,3.0,6.0,74,0.00,,,0.00,1,WeatherHawk,2013-01-03 04:52:00,
2013-01-02 22:57:00,20.6,13.7,30.03,SSW,206,3.0,6.0,74,0.00,,,0.00,0,WeatherHawk,2013-01-03 04:57:00,
2013-01-02 23:00:00,20.6,14.0,30.03,SSW,204,3.0,6.0,75,0.00,,,0.00,0,WeatherHawk,2013-01-03 05:00:00,
2013-01-02 23:03:00,20.6,14.0,30.03,WSW,250,4.0,7.0,75,0.00,,,0.00,0,WeatherHawk,2013-01-03 05:03:00,
2013-01-02 23:04:00,20.6,14.0,30.04,SW,229,4.0,7.0,75,0.00,,,0.00,0,WeatherHawk,2013-01-03 05:04:00,
2013-01-02 23:09:00,20.6,13.9,30.03,SW,228,1.0,7.0,75,0.00,,,0.00,0,WeatherHawk,2013-01-03 05:09:00,
2013-01-02 23:14:00,20.6,13.9,30.03,SW,218,5.0,6.0,75,0.00,,,0.00,0,WeatherHawk,2013-01-03 05:14:00,
2013-01-02 23:19:00,20.6,14.0,30.03,SW,232,5.0,6.0,75,0.00,,,0.00,1,WeatherHawk,2013-01-03 05:19:00,
2013-01-02 23:24:00,20.6,13.9,30.03,SW,228,3.0,6.0,75,0.00,,,0.00,0,WeatherHawk,2013-01-03 05:24:00,
2013-01-02 23:29:00,20.6,13.9,30.03,West,259,1.0,6.0,75,0.00,,,0.00,0,WeatherHawk,2013-01-03 05:29:00,
2013-01-02 23:34:00,20.6,14.2,30.03,WSW,253,4.0,6.0,76,0.00,,,0.00,0,WeatherHawk,2013-01-03 05:34:00,
2013-01-02 23:39:00,20.6,14.2,30.03,WSW,241,3.0,6.0,76,0.00,,,0.00,1,WeatherHawk,2013-01-03 05:39:00,
2013-01-02 23:44:00,20.6,14.2,30.03,SSW,207,3.0,6.0,76,0.00,,,0.00,0,WeatherHawk,2013-01-03 05:44:00,
2013-01-02 23:50:00,20.5,14.2,30.03,SW,225,4.0,6.0,76,0.00,,,0.00,0,WeatherHawk,2013-01-03 05:50:00,
2013-01-02 23:55:00,20.5,14.2,30.03,WSW,254,5.0,7.0,76,0.00,,,0.00,0,WeatherHawk,2013-01-03 05:55:00,